Time;durP1;ratioP1;P1;durP2;ratioP2;P2;SDS_P1;SDS_P2;PMS_P1;PMS_P2;Temp;Humidity;BMP_temperature;BMP_pressure;BME280_temperature;BME280_humidity;BME280_pressure;Samples;Min_cycle;Max_cycle;Signal;HPM_P1;HPM_P2
2023/12/13 00:00:15;;;;;;;1502.20;999.90;;;;;;;;;;5033671;28;20034;-70
2023/12/13 00:02:42;;;;;;;1492.90;999.90;;;;;;;;;;5033511;28;20163;-70
2023/12/13 00:05:09;;;;;;;1489.57;999.90;;;;;;;;;;5033692;28;20462;-70
2023/12/13 00:07:35;;;;;;;1503.25;999.90;;;;;;;;;;5033862;28;20038;-70
2023/12/13 00:10:04;;;;;;;1506.45;999.90;;;;;;;;;;5033339;28;20083;-70
2023/12/13 00:12:30;;;;;;;1469.65;999.90;;;;;;;;;;5033032;28;20067;-69
2023/12/13 00:14:57;;;;;;;1511.55;999.90;;;;;;;;;;5033604;28;20117;-69
2023/12/13 00:17:24;;;;;;;1463.85;999.90;;;;;;;;;;5033172;28;20056;-70
2023/12/13 00:19:50;;;;;;;1544.57;999.90;;;;;;;;;;5033212;28;20091;-70
2023/12/13 00:22:17;;;;;;;1511.22;999.90;;;;;;;;;;5032679;28;20021;-68
2023/12/13 00:24:43;;;;;;;1491.70;999.90;;;;;;;;;;5032788;28;20017;-68
2023/12/13 00:27:10;;;;;;;1486.28;999.90;;;;;;;;;;5033224;28;20021;-67
2023/12/13 00:29:37;;;;;;;1468.32;999.90;;;;;;;;;;5032989;28;20070;-67
2023/12/13 00:32:03;;;;;;;1515.18;999.90;;;;;;;;;;5032951;28;20033;-66
2023/12/13 00:34:30;;;;;;;1490.45;999.90;;;;;;;;;;5033226;28;20022;-66
2023/12/13 00:36:56;;;;;;;1512.28;999.90;;;;;;;;;;5032955;28;20029;-69
2023/12/13 00:39:23;;;;;;;1513.85;999.90;;;;;;;;;;5031743;28;20579;-67
2023/12/13 00:41:50;;;;;;;1497.13;999.90;;;;;;;;;;5033061;28;20045;-68
2023/12/13 00:44:17;;;;;;;1517.43;999.90;;;;;;;;;;5033006;28;20021;-67
2023/12/13 00:46:44;;;;;;;1515.60;999.90;;;;;;;;;;5031783;28;20036;-66
2023/12/13 00:49:10;;;;;;;1506.40;999.90;;;;;;;;;;5020020;28;20178;-67
2023/12/13 00:51:37;;;;;;;1511.43;999.90;;;;;;;;;;5032851;28;20025;-66
2023/12/13 00:54:04;;;;;;;1512.80;999.90;;;;;;;;;;5015661;28;20025;-67
2023/12/13 00:56:31;;;;;;;1472.90;999.90;;;;;;;;;;5012961;28;20440;-68
2023/12/13 00:58:58;;;;;;;1511.28;999.90;;;;;;;;;;5013393;28;20064;-67
2023/12/13 01:01:25;;;;;;;1498.38;999.90;;;;;;;;;;5012918;28;20066;-67
2023/12/13 01:03:51;;;;;;;1499.00;999.90;;;;;;;;;;5012824;28;20550;-67
2023/12/13 01:06:18;;;;;;;1518.95;999.90;;;;;;;;;;5012936;28;20077;-66
2023/12/13 01:08:45;;;;;;;1508.03;999.90;;;;;;;;;;5030848;28;20430;-68
2023/12/13 01:11:12;;;;;;;1476.93;999.90;;;;;;;;;;5032714;28;20140;-67
2023/12/13 01:13:38;;;;;;;1494.47;999.90;;;;;;;;;;5032590;28;20398;-67
2023/12/13 01:16:05;;;;;;;1511.07;999.90;;;;;;;;;;5032454;28;20037;-66
2023/12/13 01:18:32;;;;;;;1522.28;999.90;;;;;;;;;;5032530;28;20040;-67
2023/12/13 01:20:58;;;;;;;1513.85;999.90;;;;;;;;;;5032853;28;20128;-69
2023/12/13 01:23:27;;;;;;;1497.15;999.90;;;;;;;;;;5014672;28;20624;-68
2023/12/13 01:25:53;;;;;;;1507.72;999.90;;;;;;;;;;5012467;28;20026;-67
2023/12/13 01:28:20;;;;;;;1482.18;999.90;;;;;;;;;;5012499;28;20022;-66
2023/12/13 01:30:47;;;;;;;1503.38;999.90;;;;;;;;;;5012620;28;20033;-67
2023/12/13 01:33:13;;;;;;;1517.50;999.90;;;;;;;;;;5016893;28;20083;-67
2023/12/13 01:35:40;;;;;;;1493.18;999.90;;;;;;;;;;5035884;28;20104;-68
2023/12/13 01:38:07;;;;;;;1476.38;999.90;;;;;;;;;;5036467;28;20103;-66
2023/12/13 01:40:33;;;;;;;1519.68;999.90;;;;;;;;;;5036267;28;20037;-67
2023/12/13 01:43:00;;;;;;;1522.68;999.90;;;;;;;;;;5036333;28;20542;-67
2023/12/13 01:45:26;;;;;;;1522.30;999.90;;;;;;;;;;5036236;28;20425;-68
2023/12/13 01:47:53;;;;;;;1476.05;999.90;;;;;;;;;;5036196;28;20108;-66
2023/12/13 01:50:20;;;;;;;1509.75;999.90;;;;;;;;;;5036159;28;20021;-67
2023/12/13 01:52:46;;;;;;;1513.60;999.90;;;;;;;;;;5022882;28;20022;-64
2023/12/13 01:55:13;;;;;;;1392.93;999.90;;;;;;;;;;5016007;28;20041;-64
2023/12/13 01:57:40;;;;;;;1526.50;999.90;;;;;;;;;;5016392;28;20030;-65
2023/12/13 02:00:07;;;;;;;1499.00;999.90;;;;;;;;;;5016260;28;20471;-65
2023/12/13 02:02:34;;;;;;;1512.63;999.90;;;;;;;;;;5017308;28;20036;-66
2023/12/13 02:05:01;;;;;;;1510.57;999.90;;;;;;;;;;5021612;28;20101;-66
2023/12/13 02:07:28;;;;;;;1514.50;999.90;;;;;;;;;;5026408;28;20040;-66
2023/12/13 02:09:54;;;;;;;1502.70;999.90;;;;;;;;;;5025441;28;20161;-66
2023/12/13 02:12:21;;;;;;;1506.57;999.90;;;;;;;;;;5024885;28;20772;-66
2023/12/13 02:14:47;;;;;;;1519.88;999.90;;;;;;;;;;5026281;28;20022;-66
2023/12/13 02:17:14;;;;;;;1518.88;999.90;;;;;;;;;;5024841;28;20463;-65
2023/12/13 02:19:40;;;;;;;1514.85;999.90;;;;;;;;;;5024635;28;20021;-66
2023/12/13 02:22:08;;;;;;;1515.07;999.90;;;;;;;;;;5026567;28;20021;-66
2023/12/13 02:24:34;;;;;;;1504.22;999.90;;;;;;;;;;5024798;28;20022;-65
2023/12/13 02:27:01;;;;;;;1501.18;999.90;;;;;;;;;;5024537;28;20033;-67
2023/12/13 02:29:28;;;;;;;1482.35;999.90;;;;;;;;;;5025945;28;20022;-69
2023/12/13 02:31:54;;;;;;;1521.57;999.90;;;;;;;;;;5024843;28;20026;-68
2023/12/13 02:34:21;;;;;;;1519.95;999.90;;;;;;;;;;5024856;28;20525;-65
2023/12/13 02:36:48;;;;;;;1525.53;999.90;;;;;;;;;;5020868;28;20088;-64
2023/12/13 02:39:15;;;;;;;1498.07;999.90;;;;;;;;;;5022584;28;20471;-66
2023/12/13 02:41:42;;;;;;;1489.35;999.90;;;;;;;;;;5024319;28;20045;-64
2023/12/13 02:44:08;;;;;;;1533.43;999.90;;;;;;;;;;5025810;28;20029;-65
2023/12/13 02:46:35;;;;;;;1524.05;999.90;;;;;;;;;;5022223;28;20033;-63
2023/12/13 02:49:02;;;;;;;1521.72;999.90;;;;;;;;;;5028056;28;20069;-64
2023/12/13 02:51:29;;;;;;;1397.95;999.90;;;;;;;;;;5022450;28;20025;-64
2023/12/13 02:53:55;;;;;;;1526.10;999.90;;;;;;;;;;5024359;28;20021;-65
2023/12/13 02:56:22;;;;;;;1482.07;999.90;;;;;;;;;;5024556;28;20042;-67
2023/12/13 02:58:49;;;;;;;1484.18;999.90;;;;;;;;;;5022989;28;20017;-64
2023/12/13 03:01:15;;;;;;;1443.50;999.90;;;;;;;;;;5024383;28;20022;-64
2023/12/13 03:03:42;;;;;;;1532.55;999.90;;;;;;;;;;5022606;28;20026;-65
2023/12/13 03:06:09;;;;;;;1524.18;999.90;;;;;;;;;;5025161;28;20030;-65
2023/12/13 03:08:36;;;;;;;1516.25;999.90;;;;;;;;;;5020483;28;20463;-65
2023/12/13 03:11:03;;;;;;;1510.05;999.90;;;;;;;;;;5023308;28;20029;-64
2023/12/13 03:13:29;;;;;;;1525.32;999.90;;;;;;;;;;5025769;28;20014;-66
2023/12/13 03:15:56;;;;;;;1518.05;999.90;;;;;;;;;;5024548;28;20202;-66
2023/12/13 03:18:22;;;;;;;1518.88;999.90;;;;;;;;;;5023933;28;20029;-66
2023/12/13 03:20:49;;;;;;;1521.38;999.90;;;;;;;;;;5007912;28;20026;-66
2023/12/13 03:23:16;;;;;;;1491.28;999.90;;;;;;;;;;5021165;28;20028;-65
2023/12/13 03:25:42;;;;;;;1495.07;999.90;;;;;;;;;;5023689;28;20068;-65
2023/12/13 03:28:09;;;;;;;1553.03;999.90;;;;;;;;;;5025663;28;20068;-65
2023/12/13 03:30:35;;;;;;;1535.45;999.90;;;;;;;;;;5024249;28;20064;-65
2023/12/13 03:33:02;;;;;;;1560.38;999.90;;;;;;;;;;5026110;28;20018;-65
2023/12/13 03:35:29;;;;;;;1558.10;999.90;;;;;;;;;;5023319;28;20030;-65
2023/12/13 03:37:55;;;;;;;1563.90;999.90;;;;;;;;;;5026114;28;20030;-63
2023/12/13 03:40:22;;;;;;;1531.82;999.90;;;;;;;;;;5023766;28;20022;-62
2023/12/13 03:42:48;;;;;;;1541.93;999.90;;;;;;;;;;5025416;28;20018;-64
2023/12/13 03:45:15;;;;;;;1537.85;999.90;;;;;;;;;;5026733;28;20506;-64
2023/12/13 03:47:42;;;;;;;1563.40;999.90;;;;;;;;;;5030850;28;20033;-64
2023/12/13 03:50:08;;;;;;;1558.30;999.90;;;;;;;;;;5018033;28;20026;-66
2023/12/13 03:52:35;;;;;;;1563.03;999.90;;;;;;;;;;5029771;28;20097;-64
2023/12/13 03:55:02;;;;;;;1572.40;999.90;;;;;;;;;;5029986;28;20060;-65
2023/12/13 03:57:28;;;;;;;1564.13;999.90;;;;;;;;;;5028365;28;20501;-63
2023/12/13 03:59:55;;;;;;;1556.20;999.90;;;;;;;;;;5028964;28;20025;-64
2023/12/13 04:02:22;;;;;;;1544.75;999.90;;;;;;;;;;5032979;28;20113;-65
2023/12/13 04:04:48;;;;;;;1557.40;999.90;;;;;;;;;;5033102;28;20033;-63
2023/12/13 04:07:15;;;;;;;1500.65;999.90;;;;;;;;;;5033254;28;20029;-63
2023/12/13 04:09:41;;;;;;;1558.15;999.90;;;;;;;;;;5025976;28;20486;-64
2023/12/13 04:12:08;;;;;;;1557.40;999.90;;;;;;;;;;5024731;28;20026;-63
2023/12/13 04:14:35;;;;;;;1518.82;999.90;;;;;;;;;;5028623;28;20096;-65
2023/12/13 04:17:01;;;;;;;1531.80;999.90;;;;;;;;;;5034114;28;20455;-62
2023/12/13 04:19:28;;;;;;;1530.85;999.90;;;;;;;;;;5033891;28;20128;-63
2023/12/13 05:06:27;;;;;;;1538.75;999.90;;;29.30;99.90;;;;;;5087349;28;20486;-67
2023/12/13 05:08:54;;;;;;;1540.22;999.90;;;30.30;99.90;;;;;;5089635;28;20036;-64
2023/12/13 05:11:20;;;;;;;1553.35;999.90;;;30.30;99.90;;;;;;5090639;28;20024;-63
2023/12/13 05:13:47;;;;;;;1556.68;999.90;;;30.30;99.90;;;;;;5090772;28;20024;-64
2023/12/13 05:16:15;;;;;;;1555.50;999.90;;;30.30;99.90;;;;;;5090965;28;20021;-64
2023/12/13 05:18:41;;;;;;;1556.57;999.90;;;30.30;99.90;;;;;;5091172;28;20031;-66
2023/12/13 05:21:08;;;;;;;1552.88;999.90;;;30.30;99.90;;;;;;5088434;28;20477;-67
2023/12/13 05:23:34;;;;;;;1551.97;999.90;;;30.40;99.90;;;;;;5090843;28;20486;-65
2023/12/13 05:26:01;;;;;;;1546.35;999.90;;;30.50;99.90;;;;;;5087688;28;20052;-66
2023/12/13 05:28:28;;;;;;;1551.35;999.90;;;30.50;99.90;;;;;;5089713;28;20449;-67
2023/12/13 05:30:55;;;;;;;1556.70;999.90;;;30.50;99.90;;;;;;5089638;28;20036;-66
2023/12/13 05:33:21;;;;;;;1553.35;999.90;;;30.50;99.90;;;;;;5086978;28;20035;-67
2023/12/13 05:35:48;;;;;;;1538.10;999.90;;;30.50;99.90;;;;;;5089730;28;20020;-65
2023/12/13 05:38:14;;;;;;;1546.05;999.90;;;30.40;99.90;;;;;;5090559;28;20074;-66
2023/12/13 05:40:41;;;;;;;1554.20;999.90;;;30.50;99.90;;;;;;5090043;28;20404;-64
2023/12/13 05:43:07;;;;;;;1552.70;999.90;;;30.50;99.90;;;;;;5090087;28;20024;-65
2023/12/13 05:45:34;;;;;;;1548.22;999.90;;;30.50;99.90;;;;;;5089940;28;20073;-64
2023/12/13 05:48:00;;;;;;;1545.60;999.90;;;30.50;99.90;;;;;;5090155;28;20017;-66
2023/12/13 05:50:27;;;;;;;1538.70;999.90;;;30.50;99.90;;;;;;5089786;28;20024;-65
2023/12/13 05:52:53;;;;;;;1565.38;999.90;;;30.60;99.90;;;;;;5087414;28;20576;-67
2023/12/13 05:55:20;;;;;;;1579.18;999.90;;;30.60;99.90;;;;;;5088814;28;20112;-68
2023/12/13 05:57:46;;;;;;;1562.63;999.90;;;30.70;99.90;;;;;;5089326;28;20028;-68
2023/12/13 06:00:14;;;;;;;1576.75;999.90;;;30.60;99.90;;;;;;5087811;28;20036;-66
2023/12/13 06:02:40;;;;;;;1574.35;999.90;;;30.70;99.90;;;;;;5089130;28;20028;-67
2023/12/13 06:05:08;;;;;;;1583.70;999.90;;;30.70;99.90;;;;;;5088576;28;20051;-67
2023/12/13 06:07:34;;;;;;;1556.60;999.90;;;30.70;99.90;;;;;;5073497;28;20466;-64
2023/12/13 06:10:01;;;;;;;1541.57;999.90;;;30.80;99.90;;;;;;5075860;28;20040;-66
2023/12/13 06:12:28;;;;;;;1539.85;999.90;;;30.90;99.90;;;;;;5074618;28;20048;-67
2023/12/13 06:14:58;;;;;;;1522.32;999.90;;;30.90;99.90;;;;;;5075320;28;20106;-66
2023/12/13 06:17:24;;;;;;;1555.38;999.90;;;30.90;99.90;;;;;;5074973;28;20448;-67
2023/12/13 06:19:51;;;;;;;1536.28;999.90;;;31.00;99.90;;;;;;5075232;28;20052;-66
2023/12/13 06:22:17;;;;;;;1548.78;999.90;;;31.20;99.90;;;;;;5075082;28;20027;-66
2023/12/13 06:24:44;;;;;;;1552.60;999.90;;;31.40;99.90;;;;;;5074247;28;20043;-67
2023/12/13 06:27:11;;;;;;;1572.53;999.90;;;31.50;99.90;;;;;;5072719;28;20024;-67
2023/12/13 06:29:37;;;;;;;1569.90;999.90;;;31.50;99.90;;;;;;5072265;28;20025;-66
2023/12/13 06:32:04;;;;;;;1583.97;999.90;;;31.50;99.90;;;;;;5074097;28;20031;-65
2023/12/13 06:34:31;;;;;;;1586.30;999.90;;;31.50;99.90;;;;;;5075128;28;20025;-66
2023/12/13 06:36:57;;;;;;;1586.88;999.90;;;31.40;99.90;;;;;;5074899;28;20068;-67
2023/12/13 06:39:24;;;;;;;1580.15;999.90;;;31.40;99.90;;;;;;5070732;28;20013;-67
2023/12/13 06:41:50;;;;;;;1586.75;999.90;;;31.30;99.90;;;;;;5073552;28;20470;-66
2023/12/13 06:44:17;;;;;;;1575.28;999.90;;;31.20;99.90;;;;;;5074997;28;20436;-66
2023/12/13 06:46:43;;;;;;;1581.32;999.90;;;31.20;99.90;;;;;;5075658;28;20092;-67
2023/12/13 06:49:10;;;;;;;1588.72;999.90;;;31.10;99.90;;;;;;5075059;28;20052;-66
2023/12/13 06:51:37;;;;;;;1585.85;999.90;;;31.10;99.90;;;;;;5071373;28;20044;-65
2023/12/13 06:54:03;;;;;;;1583.13;999.90;;;31.10;99.90;;;;;;5074716;28;20028;-67
2023/12/13 06:56:30;;;;;;;1589.15;999.90;;;31.20;99.90;;;;;;5074421;28;20504;-65
2023/12/13 06:58:56;;;;;;;1586.80;999.90;;;31.20;99.90;;;;;;5074158;28;20385;-64
2023/12/13 07:01:23;;;;;;;1590.35;999.90;;;31.20;99.90;;;;;;5074944;28;20028;-65
2023/12/13 07:03:49;;;;;;;1565.35;999.90;;;31.30;99.90;;;;;;5073264;28;20027;-65
2023/12/13 07:06:18;;;;;;;1586.35;999.90;;;31.40;99.90;;;;;;5074954;28;20059;-65
2023/12/13 07:08:45;;;;;;;1569.65;999.90;;;31.40;99.90;;;;;;5088063;22;20055;-65
2023/12/13 07:11:12;;;;;;;1591.68;999.90;;;31.40;99.90;;;;;;5052816;28;20021;-65
2023/12/13 07:13:38;;;;;;;1576.45;999.90;;;31.40;99.90;;;;;;5055292;28;20040;-66
2023/12/13 07:16:05;;;;;;;1585.55;999.90;;;31.40;99.90;;;;;;5055816;28;20067;-65
2023/12/13 07:18:32;;;;;;;1568.90;999.90;;;31.40;99.90;;;;;;5054515;28;20021;-66
2023/12/13 07:20:58;;;;;;;1583.80;999.90;;;31.50;99.90;;;;;;5045666;28;20017;-64
2023/12/13 07:23:25;;;;;;;1575.68;999.90;;;31.50;99.90;;;;;;5049785;28;20029;-66
2023/12/13 07:25:52;;;;;;;1596.40;999.90;;;31.50;99.90;;;;;;5055060;28;20029;-65
2023/12/13 07:28:18;;;;;;;1585.50;999.90;;;31.50;99.90;;;;;;5055084;28;20029;-66
2023/12/13 07:30:45;;;;;;;1584.20;999.90;;;31.40;99.90;;;;;;5054973;28;20036;-66
2023/12/13 07:33:12;;;;;;;1570.28;999.90;;;31.50;99.90;;;;;;5055084;28;20020;-66
2023/12/13 07:35:38;;;;;;;1587.70;999.90;;;31.50;99.90;;;;;;5054805;28;20048;-66
2023/12/13 07:38:05;;;;;;;1569.65;999.90;;;31.50;99.90;;;;;;5050383;28;20017;-65
2023/12/13 07:40:32;;;;;;;1590.30;999.90;;;31.50;99.90;;;;;;5053353;28;20083;-65
2023/12/13 07:42:58;;;;;;;1583.47;999.90;;;31.50;99.90;;;;;;5053807;28;20021;-65
2023/12/13 07:45:25;;;;;;;1586.20;999.90;;;31.60;99.90;;;;;;5052447;28;20017;-65
2023/12/13 07:47:51;;;;;;;1595.80;999.90;;;31.70;99.90;;;;;;5054867;28;20142;-65
2023/12/13 07:50:18;;;;;;;1588.55;999.90;;;31.80;99.90;;;;;;5054700;28;20028;-65
2023/12/13 07:52:44;;;;;;;1576.22;999.90;;;31.90;99.90;;;;;;5051518;28;20510;-65
2023/12/13 07:55:13;;;;;;;1595.28;999.90;;;32.00;99.90;;;;;;5054340;28;20033;-65
2023/12/13 07:57:39;;;;;;;1580.00;999.90;;;32.00;99.90;;;;;;5074434;28;20020;-67
2023/12/13 08:00:08;;;;;;;1589.78;999.90;;;32.00;99.90;;;;;;5064382;28;20032;-66
2023/12/13 08:02:34;;;;;;;1575.60;999.90;;;32.10;99.90;;;;;;5048224;28;20079;-64
2023/12/13 08:05:01;;;;;;;1574.80;999.90;;;32.00;99.90;;;;;;5053930;28;20024;-65
2023/12/13 08:07:27;;;;;;;1589.93;999.90;;;32.00;99.90;;;;;;5039161;28;20076;-66
2023/12/13 08:09:57;;;;;;;1575.50;999.90;;;32.10;99.90;;;;;;5033634;28;20046;-68
2023/12/13 08:12:23;;;;;;;1587.47;999.90;;;32.10;99.90;;;;;;5046690;28;20029;-68
2023/12/13 08:14:50;;;;;;;1590.95;999.90;;;32.10;99.90;;;;;;5053397;28;20512;-69
2023/12/13 08:17:17;;;;;;;1566.07;999.90;;;32.10;99.90;;;;;;5044997;28;20092;-67
2023/12/13 08:19:44;;;;;;;1585.07;999.90;;;32.10;99.90;;;;;;5048660;28;20103;-68
2023/12/13 08:22:11;;;;;;;1577.18;999.90;;;32.20;99.90;;;;;;5051513;28;20475;-67
2023/12/13 08:24:37;;;;;;;1589.93;999.90;;;32.20;99.90;;;;;;5033845;28;20036;-69
2023/12/13 08:27:05;;;;;;;1587.00;999.90;;;32.20;99.90;;;;;;5033579;28;20033;-70
2023/12/13 08:29:31;;;;;;;1572.57;999.90;;;32.20;99.90;;;;;;5033930;28;20033;-69
2023/12/13 08:31:58;;;;;;;1593.35;999.90;;;32.20;99.90;;;;;;5033430;28;20582;-69
2023/12/13 08:34:24;;;;;;;1591.32;999.90;;;32.30;99.90;;;;;;5033028;28;20480;-70
2023/12/13 08:36:51;;;;;;;1574.40;999.90;;;32.30;99.90;;;;;;5033518;28;20028;-70
2023/12/13 08:39:17;;;;;;;1590.45;999.90;;;32.30;99.90;;;;;;5036556;28;20026;-71
2023/12/13 08:41:44;;;;;;;1593.03;999.90;;;32.40;99.90;;;;;;5032854;28;20022;-68
2023/12/13 08:44:10;;;;;;;1575.28;999.90;;;32.40;99.90;;;;;;5032787;28;20104;-71
2023/12/13 08:46:37;;;;;;;1584.32;999.90;;;32.40;99.90;;;;;;5033413;28;20030;-69
2023/12/13 08:49:04;;;;;;;1583.38;999.90;;;32.40;99.90;;;;;;5035011;28;20028;-67
2023/12/13 08:51:31;;;;;;;1590.57;999.90;;;32.40;99.90;;;;;;5042264;28;20032;-67
2023/12/13 08:53:57;;;;;;;1589.50;999.90;;;32.50;99.90;;;;;;5032575;28;20029;-69
2023/12/13 08:56:24;;;;;;;1585.65;999.90;;;32.50;99.90;;;;;;5032781;28;20467;-69
2023/12/13 08:58:50;;;;;;;1591.55;999.90;;;32.50;99.90;;;;;;5036012;28;20037;-70
2023/12/13 09:01:17;;;;;;;1576.65;999.90;;;32.50;99.90;;;;;;5032637;28;20021;-70
2023/12/13 09:03:43;;;;;;;1586.63;999.90;;;32.60;99.90;;;;;;5049874;28;20025;-66
2023/12/13 09:06:10;;;;;;;1586.85;999.90;;;32.60;99.90;;;;;;5052616;28;20436;-66
2023/12/13 09:08:36;;;;;;;1596.18;999.90;;;32.60;99.90;;;;;;5043442;28;20049;-66
2023/12/13 09:11:03;;;;;;;1588.53;999.90;;;32.70;99.90;;;;;;5033232;28;20029;-66
2023/12/13 09:13:30;;;;;;;1595.53;999.90;;;32.80;99.90;;;;;;5033348;28;20025;-65
2023/12/13 09:15:56;;;;;;;1584.95;999.90;;;32.80;99.90;;;;;;5046680;28;20120;-66
2023/12/13 09:18:23;;;;;;;1577.50;999.90;;;32.70;99.90;;;;;;5045467;28;20436;-67
2023/12/13 09:20:49;;;;;;;1592.38;999.90;;;32.80;99.90;;;;;;5033232;28;20022;-67
2023/12/13 09:23:23;;;;;;;1596.53;999.90;;;32.70;99.90;;;;;;5050816;28;20025;-67
2023/12/13 09:25:50;;;;;;;1586.45;999.90;;;32.70;99.90;;;;;;5041164;28;20467;-66
2023/12/13 09:28:17;;;;;;;1592.35;999.90;;;32.80;99.90;;;;;;5042740;28;20033;-65
2023/12/13 09:30:44;;;;;;;1591.75;999.90;;;32.70;99.90;;;;;;5046554;28;20480;-64
2023/12/13 09:33:13;;;;;;;1591.88;999.90;;;32.70;99.90;;;;;;5038914;28;20025;-64
2023/12/13 09:35:40;;;;;;;1593.25;999.90;;;32.80;99.90;;;;;;5052683;28;20052;-67
2023/12/13 09:38:07;;;;;;;1580.63;999.90;;;32.90;99.90;;;;;;5039019;28;20431;-68
2023/12/13 09:40:33;;;;;;;1596.25;999.90;;;32.90;99.90;;;;;;5033100;28;20076;-68
2023/12/13 09:43:00;;;;;;;1577.18;999.90;;;32.90;99.90;;;;;;5036287;28;20025;-69
2023/12/13 09:45:28;;;;;;;1596.53;999.90;;;32.90;99.90;;;;;;5051383;28;20115;-70
2023/12/13 09:47:56;;;;;;;1580.85;999.90;;;32.90;99.90;;;;;;5050901;28;20494;-67
2023/12/13 09:50:24;;;;;;;1594.07;999.90;;;32.90;99.90;;;;;;5045910;28;20052;-67
2023/12/13 09:52:51;;;;;;;1600.45;999.90;;;32.80;99.90;;;;;;5044208;28;20108;-66
2023/12/13 09:55:17;;;;;;;1598.28;999.90;;;32.80;99.90;;;;;;5039853;28;20116;-65
2023/12/13 09:57:44;;;;;;;1584.35;999.90;;;32.90;99.90;;;;;;5050729;23;20078;-66
2023/12/13 10:00:12;;;;;;;1579.18;999.90;;;32.90;99.90;;;;;;5016517;28;20058;-66
2023/12/13 10:02:39;;;;;;;1594.30;999.90;;;32.90;99.90;;;;;;5026728;28;20048;-66
2023/12/13 10:05:10;;;;;;;1597.10;999.90;;;32.90;99.90;;;;;;5036212;28;20078;-66
2023/12/13 10:07:38;;;;;;;1586.32;999.90;;;32.80;99.90;;;;;;5036320;28;20442;-68
2023/12/13 10:10:05;;;;;;;1587.60;999.90;;;32.80;99.90;;;;;;5020314;28;20092;-68
2023/12/13 10:12:32;;;;;;;1593.93;999.90;;;32.80;99.90;;;;;;5005424;28;20030;-67
2023/12/13 10:15:07;;;;;;;1591.93;999.90;;;32.80;99.90;;;;;;5013532;28;20395;-67
2023/12/13 10:17:34;;;;;;;1589.50;999.90;;;32.70;99.90;;;;;;5014070;28;20033;-68
2023/12/13 10:20:00;;;;;;;1586.47;999.90;;;32.80;99.90;;;;;;5015903;28;20046;-64
2023/12/13 10:22:27;;;;;;;1577.72;999.90;;;32.70;99.90;;;;;;5012361;28;20033;-65
2023/12/13 10:24:54;;;;;;;1596.68;999.90;;;32.70;99.90;;;;;;5012925;28;20022;-61
2023/12/13 10:27:20;;;;;;;1590.00;999.90;;;32.30;99.90;;;;;;5011916;28;20117;-65
2023/12/13 10:29:47;;;;;;;1582.35;999.90;;;32.70;99.90;;;;;;5009323;28;20033;-66
2023/12/13 10:32:13;;;;;;;1575.88;999.90;;;32.70;99.90;;;;;;5012885;28;20033;-67
2023/12/13 10:34:40;;;;;;;1597.75;999.90;;;32.70;99.90;;;;;;5012225;28;20018;-65
2023/12/13 10:37:07;;;;;;;1578.65;999.90;;;32.70;99.90;;;;;;5011284;28;20088;-66
2023/12/13 10:39:36;;;;;;;1598.60;999.90;;;32.60;99.90;;;;;;5002237;28;20037;-68
2023/12/13 10:42:03;;;;;;;1596.53;999.90;;;32.60;99.90;;;;;;5015503;28;20030;-65
2023/12/13 10:44:34;;;;;;;1577.32;999.90;;;32.60;99.90;;;;;;5009097;28;20073;-67
2023/12/13 10:47:06;;;;;;;1601.05;999.90;;;32.30;99.90;;;;;;5007667;28;20026;-67
2023/12/13 10:49:33;;;;;;;1589.32;999.90;;;32.50;99.90;;;;;;5012111;28;20484;-68
2023/12/13 10:52:01;;;;;;;1594.90;999.90;;;32.50;99.90;;;;;;5012198;28;20361;-69
2023/12/13 10:54:28;;;;;;;1587.43;999.90;;;32.40;99.90;;;;;;5015530;28;20021;-66
2023/12/13 10:56:57;;;;;;;1678.25;999.90;;;32.40;99.90;;;;;;5000222;28;20018;-71
2023/12/13 10:59:25;;;;;;;1670.28;999.90;;;32.40;99.90;;;;;;5000513;28;20169;-68
2023/12/13 11:01:53;;;;;;;1671.72;999.90;;;32.40;99.90;;;;;;4996923;28;20366;-70
2023/12/13 11:04:21;;;;;;;1622.15;999.90;;;32.40;99.90;;;;;;5005159;28;20034;-66
2023/12/13 11:06:48;;;;;;;1611.85;999.90;;;32.30;99.90;;;;;;5003076;28;20026;-69
2023/12/13 11:09:18;;;;;;;1610.20;999.90;;;32.20;99.90;;;;;;5005032;28;20045;-66
2023/12/13 11:11:46;;;;;;;1605.93;999.90;;;32.20;99.90;;;;;;5004161;28;20108;-65
2023/12/13 11:14:16;;;;;;;1595.25;999.90;;;32.20;99.90;;;;;;5000146;28;20137;-67
2023/12/13 11:16:47;;;;;;;1607.82;999.90;;;32.10;99.90;;;;;;4997955;28;20080;-65
2023/12/13 11:19:19;;;;;;;1609.65;999.90;;;32.00;99.90;;;;;;5006272;28;20026;-67
2023/12/13 11:21:47;;;;;;;1601.75;999.90;;;32.00;99.90;;;;;;5002474;28;20026;-66
2023/12/13 11:24:16;;;;;;;1584.18;999.90;;;32.00;99.90;;;;;;5004916;28;20034;-68
2023/12/13 11:26:49;;;;;;;1607.28;999.90;;;32.00;99.90;;;;;;5003862;28;20030;-64
2023/12/13 11:29:22;;;;;;;1588.88;999.90;;;32.00;99.90;;;;;;5002341;28;20058;-66
2023/12/13 11:31:53;;;;;;;1597.38;999.90;;;31.90;99.90;;;;;;5003697;28;20591;-65
2023/12/13 11:34:43;;;;;;;1620.30;999.90;;;31.90;99.90;;;;;;5004869;28;20496;-65
2023/12/13 11:37:11;;;;;;;1619.07;999.90;;;31.80;99.90;;;;;;5004810;28;20101;-65
2023/12/13 11:39:39;;;;;;;1594.88;999.90;;;31.80;99.90;;;;;;5003825;28;20022;-65
2023/12/13 11:42:07;;;;;;;1578.40;999.90;;;31.80;99.90;;;;;;5002437;28;20024;-65
2023/12/13 11:44:35;;;;;;;1607.70;999.90;;;31.80;99.90;;;;;;5003990;28;20125;-66
2023/12/13 11:47:07;;;;;;;1590.03;999.90;;;31.70;99.90;;;;;;5004533;28;20436;-66
2023/12/13 11:49:33;;;;;;;1620.03;999.90;;;31.70;99.90;;;;;;5002835;28;20026;-67
2023/12/13 11:52:03;;;;;;;1620.45;999.90;;;31.70;99.90;;;;;;5002623;28;20026;-65
2023/12/13 11:54:29;;;;;;;1621.15;999.90;;;31.60;99.90;;;;;;5002331;28;20025;-66
2023/12/13 11:56:56;;;;;;;1640.50;999.90;;;31.60;99.90;;;;;;4998371;28;20501;-65
2023/12/13 11:59:24;;;;;;;1623.75;999.90;;;31.60;99.90;;;;;;4999445;28;20081;-66
2023/12/13 12:01:51;;;;;;;1619.32;999.90;;;31.60;99.90;;;;;;5003131;28;20173;-64
2023/12/13 12:04:20;;;;;;;1630.32;999.90;;;31.50;99.90;;;;;;5001111;28;20041;-66
2023/12/13 12:06:48;;;;;;;1628.82;999.90;;;31.50;99.90;;;;;;4999595;28;20026;-64
2023/12/13 12:09:18;;;;;;;1602.50;999.90;;;31.40;99.90;;;;;;5000006;28;20034;-65
2023/12/13 12:11:44;;;;;;;1624.72;999.90;;;31.40;99.90;;;;;;5000705;28;20116;-65
2023/12/13 12:14:11;;;;;;;1630.95;999.90;;;31.40;99.90;;;;;;4999245;28;20037;-65
2023/12/13 12:16:38;;;;;;;1622.85;999.90;;;31.40;99.90;;;;;;5001839;28;20061;-65
2023/12/13 12:19:06;;;;;;;1636.90;999.90;;;31.40;99.90;;;;;;5004496;28;20041;-65
2023/12/13 12:21:35;;;;;;;1633.63;999.90;;;31.40;99.90;;;;;;5003258;28;20080;-65
2023/12/13 12:24:02;;;;;;;1604.82;999.90;;;31.30;99.90;;;;;;5004091;28;20073;-65
2023/12/13 12:26:29;;;;;;;1631.15;999.90;;;31.30;99.90;;;;;;5001592;28;20042;-66
2023/12/13 12:28:55;;;;;;;1611.50;999.90;;;31.30;99.90;;;;;;5002481;28;20476;-63
2023/12/13 12:31:22;;;;;;;1644.35;999.90;;;31.30;99.90;;;;;;5002790;28;20030;-64
2023/12/13 12:33:59;;;;;;;1657.93;999.90;;;31.20;99.90;;;;;;5001064;28;20026;-64
2023/12/13 12:36:26;;;;;;;1638.25;999.90;;;31.20;99.90;;;;;;5001145;28;20101;-65
2023/12/13 12:38:53;;;;;;;1632.28;999.90;;;31.20;99.90;;;;;;5003176;28;20032;-62
2023/12/13 12:41:22;;;;;;;1616.63;999.90;;;31.10;99.90;;;;;;5002775;28;20035;-66
2023/12/13 12:43:51;;;;;;;1636.90;999.90;;;31.10;99.90;;;;;;5000915;28;20050;-65
2023/12/13 12:46:18;;;;;;;1602.38;999.90;;;31.00;99.90;;;;;;5002196;28;20026;-65
2023/12/13 12:48:45;;;;;;;1634.53;999.90;;;31.00;99.90;;;;;;5003233;28;20018;-64
2023/12/13 12:51:12;;;;;;;1621.75;999.90;;;31.00;99.90;;;;;;5000220;28;20054;-66
2023/12/13 12:53:38;;;;;;;1645.35;999.90;;;30.90;99.90;;;;;;5001891;28;20018;-64
2023/12/13 12:56:05;;;;;;;1651.97;999.90;;;30.90;99.90;;;;;;5002793;28;20030;-63
2023/12/13 12:58:31;;;;;;;1646.55;999.90;;;30.90;99.90;;;;;;5000019;28;20441;-65
2023/12/13 13:00:58;;;;;;;1614.85;999.90;;;30.90;99.90;;;;;;5000438;28;20474;-66
2023/12/13 13:03:26;;;;;;;1639.38;999.90;;;30.90;99.90;;;;;;5001193;28;20117;-66
2023/12/13 13:05:53;;;;;;;1631.78;999.90;;;30.90;99.90;;;;;;5001516;28;20027;-65
2023/12/13 13:08:19;;;;;;;1620.07;999.90;;;30.80;99.90;;;;;;5002253;28;20018;-65
2023/12/13 13:10:47;;;;;;;1629.35;999.90;;;30.90;99.90;;;;;;5003189;28;20096;-66
2023/12/13 13:13:13;;;;;;;1633.15;999.90;;;30.80;99.90;;;;;;5000302;28;20492;-66